Home   Weather   Spain   Puerto de la Cruz   Past weeks
Flag for Spain

Past Weather in Puerto de la Cruz, Canary Islands, Spain — Yesterday and Last 2 Weeks

Currently: 63 °F. Partly sunny. (Weather station: Tenerife / Los Rodeos, Spain). See more current weather

Past Weather in Puerto de la Cruz — Graph

°F

Puerto de la Cruz Temperature Yesterday

Maximum temperature yesterday: 70 °F (at 3:30 pm)
Minimum temperature yesterday: 59 °F (at 9:30 am)
Average temperature yesterday: 62 °F

High & Low Weather Summary for the Past Weeks

 TemperatureHumidityPressure
High90 °F (Jun 10, 12:00 pm)100% (Jun 7, 9:00 pm)30.33 "Hg (Jun 7, 9:00 pm)
Low55 °F (Jun 5, 6:00 am)19% (Jun 11, 9:30 am)30.07 "Hg (Jun 7, 7:30 pm)
Average66 °F68%30.16 "Hg
* Reported Jun 4 10:00 am — Jun 19 10:00 am, Puerto de la Cruz. Weather by CustomWeather, © 2021

Note: Actual official high and low records may vary slightly from our data, if they occured in-between our weather recording intervals... More about our weather records

Puerto de la Cruz Weather History for the Previous 24 Hours

Scroll right to see more
 ConditionsComfort  
Time TempWeatherWind HumidityBarometerVisibility
10:00 am
Sat, Jun 19
59 °FPartly sunny.12 mph77%30.21 "HgN/A
9:30 am59 °FPartly sunny.16 mph82%30.21 "HgN/A
9:00 am59 °FPartly sunny.16 mph77%30.21 "HgN/A
8:30 am57 °FPartly sunny.17 mph77%30.21 "HgN/A
8:00 am57 °FPassing clouds.16 mph77%30.18 "HgN/A
7:30 am57 °FPartly sunny.20 mph77%30.18 "HgN/A
7:00 am59 °FPassing clouds.20 mph72%30.18 "HgN/A
6:30 am59 °FPassing clouds.17 mph77%30.18 "HgN/A
6:00 am59 °FPassing clouds.18 mph77%30.15 "HgN/A
5:30 am59 °FOvercast.17 mph72%30.15 "HgN/A
5:00 am59 °FMostly cloudy.17 mph72%30.15 "HgN/A
4:30 am57 °FPartly cloudy.21 mph82%30.15 "HgN/A
4:00 am57 °FPassing clouds.21 mph82%30.15 "HgN/A
3:30 am57 °FPassing clouds.20 mph82%30.18 "HgN/A
3:00 am57 °FPartly cloudy.17 mph82%30.18 "HgN/A
2:30 am59 °FPartly cloudy.15 mph82%30.18 "HgN/A
2:00 am59 °FPartly cloudy.16 mph77%30.21 "HgN/A
1:30 am59 °FPartly cloudy.15 mph77%30.21 "HgN/A
1:00 am59 °FPartly cloudy.15 mph82%30.21 "HgN/A
12:30 am59 °FPartly cloudy.14 mph82%30.21 "HgN/A
12:00 am59 °FPartly cloudy.15 mph77%30.21 "HgN/A
11:30 pm
Fri, Jun 18
59 °FPartly cloudy.15 mph82%30.21 "HgN/A
11:00 pm59 °FPassing clouds.17 mph82%30.21 "HgN/A
10:30 pm59 °FPassing clouds.16 mph82%30.18 "HgN/A
10:00 pm59 °FPassing clouds.14 mph82%30.18 "HgN/A
9:30 pm59 °FPartly cloudy.15 mph88%30.18 "HgN/A
9:00 pm59 °FBroken clouds.17 mph88%30.18 "HgN/A
8:30 pm61 °FScattered clouds.18 mph83%30.18 "HgN/A
8:00 pm61 °FScattered clouds.17 mph77%30.18 "HgN/A
7:30 pm63 °FScattered clouds.18 mph64%30.15 "HgN/A
7:00 pm63 °FScattered clouds.17 mph73%30.15 "HgN/A
6:30 pm63 °FScattered clouds.18 mph73%30.15 "HgN/A
6:00 pm63 °FScattered clouds.21 mph77%30.15 "HgN/A
5:30 pm63 °FPartly sunny.22 mph77%30.15 "HgN/A
5:00 pm64 °FPartly sunny.21 mph73%30.15 "HgN/A
4:30 pm64 °FBroken clouds.20 mph78%30.18 "HgN/A
4:00 pm64 °FPartly sunny.20 mph73%30.18 "HgN/A
3:30 pm70 °FPartly sunny.21 mph64%30.18 "HgN/A
3:00 pm64 °FPartly sunny.18 mph73%30.18 "HgN/A
2:30 pm66 °FPartly sunny.18 mph68%30.18 "HgN/A
2:00 pm64 °FPartly sunny.20 mph78%30.18 "HgN/A
1:30 pm63 °FPartly sunny.18 mph77%30.18 "HgN/A
1:00 pm63 °FPartly sunny.17 mph83%30.18 "HgN/A
12:30 pm64 °FPartly sunny.17 mph78%30.18 "HgN/A
12:00 pm66 °FBroken clouds.17 mph78%30.18 "HgN/A
11:30 am63 °FPartly sunny.16 mph83%30.18 "HgN/A
11:00 am64 °FBroken clouds.17 mph88%30.18 "HgN/A
Weather by CustomWeather, © 2021

See weather overview